Boyd Deep Canyon Reserve, California Weather observations

Data are for 10 minute period ending at time listed.
 Day   Time   Solar   Ave.   Ave.  Ave.  Vector  Max.   Baro.   Total    
  of    of     Rad.   Air    Rel.  Wind   Wind   Wind  Press.  Precip.   
Year   Day            Temp.  Hum.  Speed  Dir.   Gust                    
2015   (PST)  Kw/m2    F      %     mph   deg.    mph    mb.     in.     
-------------------------------------------------------------------------
 215    0:00   0.00   85.3    38    2.4    72     4.2   972.4    0.00 
 215    0:10   0.00   84.9    38    2.0    92     3.3   972.5    0.00 
 215    0:20   0.00   84.8    38    1.7    79     3.3   972.4    0.00 
 215    0:30   0.00   84.6    38    2.0    78     4.0   972.3    0.00 
 215    0:40   0.00   84.3    39    2.2    45     3.4   972.3    0.00 
 215    0:50   0.00   83.6    40    2.6    51     3.7   972.4    0.00 
 215    1:00   0.00   83.4    40    3.7    53     5.4   972.4    0.00 
 215    1:10   0.00   83.1    41    2.2    35     4.6   972.4    0.00 
 215    1:20   0.00   82.8    41    0.9   196     2.2   972.5    0.00 
 215    1:30   0.00   82.7    41    0.9   208     2.5   972.4    0.00 
 215    1:40   0.00   83.0    40    2.6   213     3.9   972.4    0.00 
 215    1:50   0.00   83.3    37    2.2   197     3.8   972.5    0.00 
 215    2:00   0.00   82.8    39    4.5    35     6.4   972.4    0.00 
 215    2:10   0.00   82.3    42    4.9    47     7.5   972.5    0.00 
 215    2:20   0.00   81.6    43    3.7    58     5.4   972.5    0.00 
 215    2:30   0.00   81.5    43    2.9    75     4.2   972.5    0.00 
 215    2:40   0.00   81.4    44    3.5    61     4.5   972.5    0.00 
 215    2:50   0.00   81.1    44    2.0    43     3.9   972.6    0.00 
 215    3:00   0.00   80.5    46    0.4    43     1.2   972.6    0.00 
 215    3:10   0.00   79.8    47    0.3    70     1.2   972.5    0.00 
 215    3:20   0.00   79.9    46    0.9    75     1.9   972.6    0.00 
 215    3:30   0.00   79.9    46    0.8   274     2.2   972.6    0.00 
 215    3:40   0.00   79.7    46    0.4   338     2.2   972.5    0.00 
 215    3:50   0.00   80.3    45    2.0    76     3.4   972.5    0.00 
 215    4:00   0.00   80.3    45    2.6   218     3.9   972.6    0.00 
 215    4:10   0.00   80.1    45    2.0    62     4.1   972.7    0.00 
 215    4:20   0.00   79.5    46    0.8   276     2.0   972.8    0.00 
 215    4:30   0.00   79.5    46    1.0   168     3.1   972.8    0.00 
 215    4:40   0.00   79.5    46    2.1   199     3.3   972.9    0.00 
 215    4:50   0.00   79.4    46    3.1   214     4.1   973.0    0.00 
 215    5:00   0.00   80.0    43    2.6   192     3.6   973.0    0.00 
 215    5:10   0.00   81.0    40    0.6   175     3.1   973.1    0.00 
 215    5:20   0.01   80.3    38    1.7   206     4.6   973.1    0.00 
 215    5:30   0.01   80.8    35    1.5   198     4.0   973.2    0.00 
 215    5:40   0.01   82.0    29    0.3   218     1.9   973.2    0.00 
 215    5:50   0.03   82.1    28    1.1    45     2.6   973.3    0.00 
 215    6:00   0.11   84.2    27    0.8   300     3.1   973.3    0.00 
 215    6:10   0.14   85.7    26    1.9   251     4.6   973.4    0.00 
 215    6:20   0.18   83.5    38    3.4    32     5.3   973.5    0.00 
 215    6:30   0.21   83.1    40    2.2    59     4.9   973.6    0.00 
 215    6:40   0.25   85.7    36    0.5    48     2.2   973.6    0.00 
 215    6:50   0.28   85.8    36    1.7    30     2.9   973.7    0.00 
 215    7:00   0.32   86.1    34    1.0     4     2.0   973.7    0.00 
 215    7:10   0.35   86.9    33    1.7    15     3.7   973.7    0.00 
 215    7:20   0.39   87.1    33    1.9    12     3.8   973.8    0.00 
 215    7:30   0.43   88.0    32    1.5   345     2.7   973.9    0.00 
 215    7:40   0.46   88.8    31    2.8     8     4.6   973.9    0.00 
 215    7:50   0.50   89.5    30    1.7    20     3.9   974.1    0.00 
 215    8:00   0.53   91.7    28    0.5    96     2.2   974.1    0.00 
 215    8:10   0.57   93.8    25    1.7    20     3.3   974.1    0.00 
 215    8:20   0.60   94.4    23    3.0   356     5.4   974.2    0.00 
 215    8:30   0.63   95.0    21    3.7   341     8.8   974.2    0.00 
 215    8:40   0.66   96.9    18    4.2    50     7.9   974.4    0.00 
 215    8:50   0.69   97.1    17    5.6    64     9.9   974.7    0.00 
 215    9:00   0.72   97.4    16    6.2    67    12.0   974.7    0.00 
 215    9:10   0.75   97.5    17    6.8    56    10.4   974.8    0.00 
 215    9:20   0.78   96.9    20    7.2    66    12.3   974.8    0.00 
 215    9:30   0.80   96.5    21    8.2    71    13.6   974.9    0.00 
 215    9:40   0.82   96.4    21    8.6    62    14.5   975.0    0.00 
 215    9:50   0.85   96.3    21   10.2    66    14.5   975.1    0.00 
 215   10:00   0.87   96.6    20    8.2    74    15.6   975.1    0.00 
 215   10:10   0.89   96.8    21    7.4    59    12.1   975.1    0.00 
 215   10:20   0.91   97.3    20    5.3    73    12.0   975.1    0.00 
 215   10:30   0.92   97.6    19    7.2    65    15.3   975.1    0.00 
 215   10:40   0.94   98.1    19    5.0    60     9.3   975.2    0.00 
 215   10:50   0.95   98.0    18    6.4    67    11.2   975.1    0.00 
 215   11:00   0.95   98.6    17    6.6    42    13.7   975.1    0.00 
 215   11:10   0.96   98.3    18    5.2    78    11.2   975.1    0.00 
 215   11:20   0.96   99.3    17    5.1    61     9.7   975.1    0.00 
 215   11:30   0.96   99.3    17    4.7    74    10.7   975.1    0.00 
 215   11:40   0.97   99.6    16    5.8    60    10.4   975.0    0.00 
 215   11:50   0.97   99.6    16    5.5    85    10.4   975.0    0.00 
 215   12:00   0.97   99.7    16    6.0    57    11.1   975.0    0.00 
 215   12:10   0.99  100.1    16    5.6    32     9.6   974.8    0.00 
 215   12:20   0.98  100.1    16    3.5    83     8.6   974.8    0.00 
 215   12:30   0.94  101.0    15    3.0    54     8.6   974.7    0.00 
 215   12:40   0.97  102.1    14    4.8     2    10.4   974.6    0.00 
 215   12:50   0.96  101.9    14    4.1     2     7.1   974.5    0.00 
 215   13:00   0.99  103.0    13    1.6    69     4.7   974.3    0.00 
 215   13:10   0.67  102.8    14    5.6    10    11.1   974.2    0.00 
 215   13:20   0.45  102.0    14    4.4   340     9.1   974.1    0.00 
 215   13:30   0.77  103.0    13    3.1   314    10.7   974.0    0.00 
 215   13:40   0.60  102.8    13    4.6   337    10.6   973.9    0.00 
 215   13:50   0.74  103.1    13    4.1   347     9.1   973.8    0.00 
 215   14:00   0.73  103.4    13    4.9   360    12.7   973.8    0.00 
 215   14:10   0.45  103.4    13    3.3     7     9.3   973.6    0.00 
 215   14:20   0.40  102.7    13    6.8   357    10.3   973.5    0.00 
 215   14:30   0.92  103.0    13    5.6     1     9.3   973.3    0.00 
 215   14:40   0.82  103.9    12    6.3     9    10.0   973.3    0.00 
 215   14:50   0.37  103.5    12    6.2   355     9.2   973.1    0.00 
 215   15:00   0.28  102.5    12    6.4    15     9.9   973.1    0.00 
 215   15:10   0.45  102.6    12    5.3   354    10.6   973.0    0.00 
 215   15:20   0.57  103.0    12    4.6     4     9.5   973.0    0.00 
 215   15:30   0.73  104.0    12    5.2     5     8.7   972.9    0.00 
 215   15:40   0.62  104.3    11    4.6    12     8.7   972.8    0.00 
 215   15:50   0.49  104.4    11    5.7     5    10.8   972.7    0.00 
 215   16:00   0.51  104.4    12    3.4   359     8.5   972.6    0.00 
 215   16:10   0.49  103.9    12    5.4    27     9.3   972.5    0.00 
 215   16:20   0.47  103.9    12    4.4   352    10.4   972.5    0.00 
 215   16:30   0.43  104.6    12    3.8   351    10.5   972.4    0.00 
 215   16:40   0.39  104.2    12    4.2   347     7.7   972.3    0.00 
 215   16:50   0.35  103.8    12    5.4   358     8.3   972.2    0.00 
 215   17:00   0.32  104.0    12    5.5   350     9.1   972.2    0.00 
 215   17:10   0.28  103.7    13    5.0   350     9.9   972.2    0.00 
 215   17:20   0.24  103.6    13    6.0   345     8.6   972.2    0.00 
 215   17:30   0.21  103.1    13    5.6   348     9.3   972.2    0.00 
 215   17:40   0.12  103.0    12    4.7   358     9.2   972.2    0.00 
 215   17:50   0.03  101.7    13    6.0   351     9.1   972.1    0.00 
 215   18:00   0.03  101.0    13    5.7   348     9.0   972.1    0.00 
 215   18:10   0.01  100.6    13    4.7     5     8.0   972.1    0.00 
 215   18:20   0.01  100.1    14    5.1     0     7.2   972.2    0.00 
 215   18:30   0.01   99.5    14    4.8    13     7.0   972.1    0.00 
 215   18:40   0.00   99.0    14    6.8    28     9.0   972.1    0.00 
 215   18:50   0.00   98.3    14    5.4    24     8.4   972.1    0.00 
 215   19:00   0.00   98.0    15    3.4   185    10.6   972.1    0.00 
 215   19:10   0.00   98.0    17    6.2   189    12.1   972.2    0.00 
 215   19:20   0.00   97.3    19    5.7   138    12.1   972.2    0.00 
 215   19:30   0.00   96.8    18    5.2   146    13.2   972.2    0.00 
 215   19:40   0.00   96.5    18    8.6   176    15.6   972.2    0.00 
 215   19:50   0.00   96.2    18   13.4   176    18.7   972.3    0.00 
 215   20:00   0.00   96.0    18   14.9   174    21.6   972.4    0.00 
 215   20:10   0.00   95.8    17   12.3   178    19.6   972.6    0.00 
 215   20:20   0.00   95.8    15   10.8   178    15.9   972.7    0.00 
 215   20:30   0.00   95.2    15    4.0    23     9.6   972.9    0.00 
 215   20:40   0.00   94.8    14    7.3   261    16.5   972.9    0.00 
 215   20:50   0.00   94.5    17    6.4   263    16.5   973.0    0.00 
 215   21:00   0.00   93.0    20    3.8   310     5.9   973.1    0.00 
 215   21:10   0.00   92.5    19    1.8   241     5.5   973.0    0.00 
 215   21:20   0.00   94.4    11    5.8   262    14.5   972.9    0.00 
 215   21:30   0.00   92.1    20    5.4    25     8.6   973.0    0.00 
 215   21:40   0.00   89.5    23    4.0    60     8.7   973.0    0.00 
 215   21:50   0.00   90.5    18    3.1   121    10.0   972.9    0.00 
 215   22:00   0.00   93.3     8    5.5   176    12.9   972.9    0.00 
 215   22:10   0.00   95.0     6    9.4   190    17.2   972.9    0.00 
 215   22:20   0.00   94.7     7   10.1   204    16.7   972.9    0.00 
 215   22:30   0.00   94.7     7   11.7   205    19.3   972.9    0.00 
 215   22:40   0.00   95.0     7    9.7   209    16.4   972.9    0.00 
 215   22:50   0.00   95.2     6    8.3   217    14.5   972.9    0.00 
 215   23:00   0.00   95.2     6    7.8   218    11.9   972.9    0.00 
 215   23:10   0.00   95.2     7    7.4   226    14.3   972.9    0.00 

Return to Boyd Deep Canyon Reserve graphs page.


Western Regional Climate Center,wrcc@dri.edu